sensor_id;sensor_type;location;lat;lon;timestamp;P1;durP1;ratioP1;P2;durP2;ratioP2
9807;SDS011;4943;52.550;13.462;2023-07-20T00:00:14;419.53;;;376.23;;
9807;SDS011;4943;52.550;13.462;2023-07-20T00:03:10;425.27;;;381.73;;
9807;SDS011;4943;52.550;13.462;2023-07-20T00:05:43;414.37;;;371.13;;
9807;SDS011;4943;52.550;13.462;2023-07-20T00:08:13;418.07;;;374.83;;
9807;SDS011;4943;52.550;13.462;2023-07-20T00:10:41;403.37;;;360.30;;
9807;SDS011;4943;52.550;13.462;2023-07-20T00:13:10;414.37;;;371.00;;
9807;SDS011;4943;52.550;13.462;2023-07-20T00:15:39;421.13;;;377.43;;
9807;SDS011;4943;52.550;13.462;2023-07-20T00:18:07;432.10;;;388.20;;
9807;SDS011;4943;52.550;13.462;2023-07-20T00:20:35;419.63;;;376.20;;
9807;SDS011;4943;52.550;13.462;2023-07-20T00:23:03;410.63;;;367.30;;
9807;SDS011;4943;52.550;13.462;2023-07-20T00:25:33;414.63;;;371.17;;
9807;SDS011;4943;52.550;13.462;2023-07-20T00:28:01;407.97;;;365.03;;
9807;SDS011;4943;52.550;13.462;2023-07-20T00:30:30;426.10;;;382.47;;
9807;SDS011;4943;52.550;13.462;2023-07-20T00:32:58;412.63;;;369.43;;
9807;SDS011;4943;52.550;13.462;2023-07-20T00:35:26;411.93;;;368.73;;
9807;SDS011;4943;52.550;13.462;2023-07-20T00:37:54;414.33;;;370.43;;
9807;SDS011;4943;52.550;13.462;2023-07-20T00:40:22;404.20;;;361.30;;
9807;SDS011;4943;52.550;13.462;2023-07-20T00:42:52;406.10;;;363.20;;
9807;SDS011;4943;52.550;13.462;2023-07-20T00:45:20;416.33;;;373.07;;
9807;SDS011;4943;52.550;13.462;2023-07-20T00:47:48;412.03;;;368.53;;
9807;SDS011;4943;52.550;13.462;2023-07-20T00:50:16;408.27;;;365.10;;
9807;SDS011;4943;52.550;13.462;2023-07-20T00:52:44;413.33;;;370.20;;
9807;SDS011;4943;52.550;13.462;2023-07-20T00:55:12;396.10;;;353.20;;
9807;SDS011;4943;52.550;13.462;2023-07-20T00:57:41;392.67;;;349.97;;
9807;SDS011;4943;52.550;13.462;2023-07-20T01:00:11;396.13;;;353.33;;
9807;SDS011;4943;52.550;13.462;2023-07-20T01:02:40;387.70;;;345.20;;
9807;SDS011;4943;52.550;13.462;2023-07-20T01:05:08;394.27;;;351.70;;
9807;SDS011;4943;52.550;13.462;2023-07-20T01:07:39;384.67;;;342.47;;
9807;SDS011;4943;52.550;13.462;2023-07-20T01:10:14;381.17;;;338.57;;
9807;SDS011;4943;52.550;13.462;2023-07-20T01:12:47;379.23;;;335.60;;
9807;SDS011;4943;52.550;13.462;2023-07-20T01:15:20;384.43;;;341.53;;
9807;SDS011;4943;52.550;13.462;2023-07-20T01:17:48;387.13;;;344.63;;
9807;SDS011;4943;52.550;13.462;2023-07-20T01:20:18;389.30;;;346.53;;
9807;SDS011;4943;52.550;13.462;2023-07-20T01:22:51;377.90;;;327.33;;
9807;SDS011;4943;52.550;13.462;2023-07-20T01:25:53;381.03;;;331.53;;
9807;SDS011;4943;52.550;13.462;2023-07-20T01:28:48;383.57;;;337.70;;
9807;SDS011;4943;52.550;13.462;2023-07-20T01:31:42;378.93;;;326.83;;
9807;SDS011;4943;52.550;13.462;2023-07-20T01:34:12;384.63;;;342.23;;
9807;SDS011;4943;52.550;13.462;2023-07-20T01:36:44;381.90;;;338.90;;
9807;SDS011;4943;52.550;13.462;2023-07-20T01:39:15;386.30;;;343.87;;
9807;SDS011;4943;52.550;13.462;2023-07-20T01:41:44;383.23;;;340.17;;
9807;SDS011;4943;52.550;13.462;2023-07-20T01:44:14;391.47;;;348.67;;
9807;SDS011;4943;52.550;13.462;2023-07-20T01:46:43;386.20;;;343.03;;
9807;SDS011;4943;52.550;13.462;2023-07-20T01:49:11;384.70;;;342.23;;
9807;SDS011;4943;52.550;13.462;2023-07-20T01:51:39;385.83;;;343.57;;
9807;SDS011;4943;52.550;13.462;2023-07-20T01:54:07;392.43;;;349.77;;
9807;SDS011;4943;52.550;13.462;2023-07-20T01:56:37;379.67;;;325.97;;
9807;SDS011;4943;52.550;13.462;2023-07-20T01:59:05;394.20;;;351.43;;
9807;SDS011;4943;52.550;13.462;2023-07-20T02:01:33;383.40;;;341.20;;
9807;SDS011;4943;52.550;13.462;2023-07-20T02:04:03;398.07;;;355.13;;
9807;SDS011;4943;52.550;13.462;2023-07-20T02:06:31;388.03;;;345.57;;
9807;SDS011;4943;52.550;13.462;2023-07-20T02:08:59;379.73;;;331.60;;
9807;SDS011;4943;52.550;13.462;2023-07-20T02:11:27;383.47;;;341.07;;
9807;SDS011;4943;52.550;13.462;2023-07-20T02:13:55;398.30;;;355.40;;
9807;SDS011;4943;52.550;13.462;2023-07-20T02:16:24;380.83;;;337.13;;
9807;SDS011;4943;52.550;13.462;2023-07-20T02:18:52;376.73;;;332.30;;
9807;SDS011;4943;52.550;13.462;2023-07-20T02:21:24;383.43;;;340.63;;
9807;SDS011;4943;52.550;13.462;2023-07-20T02:23:52;380.17;;;337.90;;
9807;SDS011;4943;52.550;13.462;2023-07-20T02:26:21;381.13;;;338.70;;
9807;SDS011;4943;52.550;13.462;2023-07-20T02:28:50;386.50;;;344.13;;
9807;SDS011;4943;52.550;13.462;2023-07-20T02:31:18;377.70;;;333.03;;
9807;SDS011;4943;52.550;13.462;2023-07-20T02:33:46;384.50;;;342.20;;
9807;SDS011;4943;52.550;13.462;2023-07-20T02:36:14;381.20;;;338.43;;
9807;SDS011;4943;52.550;13.462;2023-07-20T02:38:44;386.20;;;343.73;;
9807;SDS011;4943;52.550;13.462;2023-07-20T02:41:13;380.23;;;336.30;;
9807;SDS011;4943;52.550;13.462;2023-07-20T02:43:41;376.40;;;327.30;;
9807;SDS011;4943;52.550;13.462;2023-07-20T02:46:09;390.53;;;347.60;;
9807;SDS011;4943;52.550;13.462;2023-07-20T02:48:37;380.40;;;333.03;;
9807;SDS011;4943;52.550;13.462;2023-07-20T02:51:06;382.67;;;340.30;;
9807;SDS011;4943;52.550;13.462;2023-07-20T02:53:35;375.23;;;320.30;;
9807;SDS011;4943;52.550;13.462;2023-07-20T02:56:05;381.60;;;334.67;;
9807;SDS011;4943;52.550;13.462;2023-07-20T02:58:33;379.97;;;320.90;;
9807;SDS011;4943;52.550;13.462;2023-07-20T03:01:03;378.73;;;327.10;;
9807;SDS011;4943;52.550;13.462;2023-07-20T03:03:31;379.97;;;324.80;;
9807;SDS011;4943;52.550;13.462;2023-07-20T03:06:05;380.00;;;328.53;;
9807;SDS011;4943;52.550;13.462;2023-07-20T03:08:36;376.97;;;321.30;;
9807;SDS011;4943;52.550;13.462;2023-07-20T03:11:05;382.23;;;333.03;;
9807;SDS011;4943;52.550;13.462;2023-07-20T03:13:34;376.87;;;319.40;;
9807;SDS011;4943;52.550;13.462;2023-07-20T03:16:02;382.87;;;328.33;;
9807;SDS011;4943;52.550;13.462;2023-07-20T03:18:30;380.70;;;323.07;;
9807;SDS011;4943;52.550;13.462;2023-07-20T03:20:58;376.53;;;316.90;;
9807;SDS011;4943;52.550;13.462;2023-07-20T03:23:26;379.83;;;326.50;;
9807;SDS011;4943;52.550;13.462;2023-07-20T03:25:55;375.20;;;310.73;;
9807;SDS011;4943;52.550;13.462;2023-07-20T03:28:24;375.33;;;312.73;;
9807;SDS011;4943;52.550;13.462;2023-07-20T03:30:53;370.67;;;301.33;;
9807;SDS011;4943;52.550;13.462;2023-07-20T03:33:22;374.53;;;308.53;;
9807;SDS011;4943;52.550;13.462;2023-07-20T03:35:52;381.90;;;327.93;;
9807;SDS011;4943;52.550;13.462;2023-07-20T03:38:20;380.57;;;326.70;;
9807;SDS011;4943;52.550;13.462;2023-07-20T03:40:49;376.50;;;319.97;;
9807;SDS011;4943;52.550;13.462;2023-07-20T03:43:17;380.87;;;331.63;;
9807;SDS011;4943;52.550;13.462;2023-07-20T03:45:47;375.30;;;317.13;;
9807;SDS011;4943;52.550;13.462;2023-07-20T03:48:16;380.03;;;322.13;;
9807;SDS011;4943;52.550;13.462;2023-07-20T03:50:45;378.33;;;324.97;;
9807;SDS011;4943;52.550;13.462;2023-07-20T03:53:14;378.47;;;314.87;;
9807;SDS011;4943;52.550;13.462;2023-07-20T03:55:44;378.00;;;316.53;;
9807;SDS011;4943;52.550;13.462;2023-07-20T03:58:12;376.37;;;313.83;;
9807;SDS011;4943;52.550;13.462;2023-07-20T04:00:43;375.87;;;321.37;;
9807;SDS011;4943;52.550;13.462;2023-07-20T04:03:13;376.17;;;307.23;;
9807;SDS011;4943;52.550;13.462;2023-07-20T04:05:42;375.13;;;315.07;;
9807;SDS011;4943;52.550;13.462;2023-07-20T04:08:11;378.30;;;320.97;;
9807;SDS011;4943;52.550;13.462;2023-07-20T04:10:39;375.43;;;312.50;;
9807;SDS011;4943;52.550;13.462;2023-07-20T04:13:10;379.13;;;316.93;;
9807;SDS011;4943;52.550;13.462;2023-07-20T04:15:38;376.40;;;302.00;;
9807;SDS011;4943;52.550;13.462;2023-07-20T04:18:06;377.00;;;311.77;;
9807;SDS011;4943;52.550;13.462;2023-07-20T04:20:36;372.07;;;304.33;;
9807;SDS011;4943;52.550;13.462;2023-07-20T04:23:04;379.47;;;323.53;;
9807;SDS011;4943;52.550;13.462;2023-07-20T04:25:32;379.77;;;322.30;;
9807;SDS011;4943;52.550;13.462;2023-07-20T04:28:06;375.47;;;314.07;;
9807;SDS011;4943;52.550;13.462;2023-07-20T04:30:37;378.33;;;324.80;;
9807;SDS011;4943;52.550;13.462;2023-07-20T04:33:06;378.83;;;317.87;;
9807;SDS011;4943;52.550;13.462;2023-07-20T04:35:47;376.27;;;318.00;;
9807;SDS011;4943;52.550;13.462;2023-07-20T04:38:16;370.53;;;308.93;;
9807;SDS011;4943;52.550;13.462;2023-07-20T04:40:45;373.70;;;306.47;;
9807;SDS011;4943;52.550;13.462;2023-07-20T04:43:14;372.80;;;309.70;;
9807;SDS011;4943;52.550;13.462;2023-07-20T04:45:43;377.73;;;320.47;;
9807;SDS011;4943;52.550;13.462;2023-07-20T04:48:13;377.40;;;327.10;;
9807;SDS011;4943;52.550;13.462;2023-07-20T04:50:43;376.23;;;323.80;;
9807;SDS011;4943;52.550;13.462;2023-07-20T04:53:13;376.33;;;320.97;;
9807;SDS011;4943;52.550;13.462;2023-07-20T04:55:46;374.53;;;318.17;;
9807;SDS011;4943;52.550;13.462;2023-07-20T04:58:17;378.80;;;329.87;;
9807;SDS011;4943;52.550;13.462;2023-07-20T05:00:45;370.20;;;312.77;;
9807;SDS011;4943;52.550;13.462;2023-07-20T05:03:14;373.73;;;319.17;;
9807;SDS011;4943;52.550;13.462;2023-07-20T05:05:42;374.47;;;312.07;;
9807;SDS011;4943;52.550;13.462;2023-07-20T05:08:14;373.40;;;325.43;;
9807;SDS011;4943;52.550;13.462;2023-07-20T05:10:43;378.67;;;331.70;;
9807;SDS011;4943;52.550;13.462;2023-07-20T05:13:11;375.90;;;330.23;;
9807;SDS011;4943;52.550;13.462;2023-07-20T05:15:40;383.97;;;341.43;;
9807;SDS011;4943;52.550;13.462;2023-07-20T05:18:09;376.77;;;324.60;;
9807;SDS011;4943;52.550;13.462;2023-07-20T05:20:37;384.33;;;335.87;;
9807;SDS011;4943;52.550;13.462;2023-07-20T05:23:06;391.93;;;349.37;;
9807;SDS011;4943;52.550;13.462;2023-07-20T05:25:35;399.80;;;356.90;;
9807;SDS011;4943;52.550;13.462;2023-07-20T05:28:03;389.00;;;346.70;;
9807;SDS011;4943;52.550;13.462;2023-07-20T05:30:33;399.40;;;356.87;;
9807;SDS011;4943;52.550;13.462;2023-07-20T05:33:02;382.67;;;340.77;;
9807;SDS011;4943;52.550;13.462;2023-07-20T05:35:30;374.80;;;332.93;;
9807;SDS011;4943;52.550;13.462;2023-07-20T05:37:58;389.60;;;347.43;;
9807;SDS011;4943;52.550;13.462;2023-07-20T05:40:26;383.60;;;341.70;;
9807;SDS011;4943;52.550;13.462;2023-07-20T05:42:56;377.10;;;330.90;;
9807;SDS011;4943;52.550;13.462;2023-07-20T05:45:24;382.47;;;340.53;;
9807;SDS011;4943;52.550;13.462;2023-07-20T05:47:52;376.37;;;327.47;;
9807;SDS011;4943;52.550;13.462;2023-07-20T05:50:20;394.50;;;352.00;;
9807;SDS011;4943;52.550;13.462;2023-07-20T05:52:48;384.10;;;342.20;;
9807;SDS011;4943;52.550;13.462;2023-07-20T05:55:19;397.13;;;354.37;;
9807;SDS011;4943;52.550;13.462;2023-07-20T05:57:48;396.90;;;354.60;;
9807;SDS011;4943;52.550;13.462;2023-07-20T06:00:18;398.87;;;356.10;;
9807;SDS011;4943;52.550;13.462;2023-07-20T06:02:52;399.97;;;357.43;;
9807;SDS011;4943;52.550;13.462;2023-07-20T06:05:21;399.70;;;357.10;;
9807;SDS011;4943;52.550;13.462;2023-07-20T06:07:54;408.43;;;365.77;;
9807;SDS011;4943;52.550;13.462;2023-07-20T06:10:24;423.13;;;379.93;;
9807;SDS011;4943;52.550;13.462;2023-07-20T06:12:53;435.67;;;392.00;;
9807;SDS011;4943;52.550;13.462;2023-07-20T06:15:26;436.10;;;392.57;;
9807;SDS011;4943;52.550;13.462;2023-07-20T06:17:55;424.03;;;380.97;;
9807;SDS011;4943;52.550;13.462;2023-07-20T06:20:24;455.53;;;411.33;;
9807;SDS011;4943;52.550;13.462;2023-07-20T06:22:53;408.50;;;365.90;;
9807;SDS011;4943;52.550;13.462;2023-07-20T06:25:21;424.23;;;381.20;;
9807;SDS011;4943;52.550;13.462;2023-07-20T06:27:49;423.43;;;380.10;;
9807;SDS011;4943;52.550;13.462;2023-07-20T06:30:18;444.93;;;399.67;;
9807;SDS011;4943;52.550;13.462;2023-07-20T06:32:48;435.60;;;391.80;;
9807;SDS011;4943;52.550;13.462;2023-07-20T06:35:17;430.97;;;387.70;;
9807;SDS011;4943;52.550;13.462;2023-07-20T06:37:45;425.03;;;382.00;;
9807;SDS011;4943;52.550;13.462;2023-07-20T06:40:13;438.37;;;394.93;;
9807;SDS011;4943;52.550;13.462;2023-07-20T06:42:44;426.33;;;383.43;;
9807;SDS011;4943;52.550;13.462;2023-07-20T06:45:16;433.10;;;390.03;;
9807;SDS011;4943;52.550;13.462;2023-07-20T06:47:44;440.97;;;397.83;;
9807;SDS011;4943;52.550;13.462;2023-07-20T06:50:14;444.93;;;401.40;;
9807;SDS011;4943;52.550;13.462;2023-07-20T06:52:43;432.70;;;389.57;;
9807;SDS011;4943;52.550;13.462;2023-07-20T06:55:14;428.17;;;385.13;;
9807;SDS011;4943;52.550;13.462;2023-07-20T06:57:49;424.97;;;381.97;;
9807;SDS011;4943;52.550;13.462;2023-07-20T07:00:18;420.10;;;377.23;;
9807;SDS011;4943;52.550;13.462;2023-07-20T07:02:46;416.53;;;374.03;;
9807;SDS011;4943;52.550;13.462;2023-07-20T07:05:18;426.03;;;383.23;;
9807;SDS011;4943;52.550;13.462;2023-07-20T07:07:47;436.33;;;393.33;;
9807;SDS011;4943;52.550;13.462;2023-07-20T07:10:15;435.50;;;392.33;;
9807;SDS011;4943;52.550;13.462;2023-07-20T07:12:44;434.30;;;391.20;;
9807;SDS011;4943;52.550;13.462;2023-07-20T07:15:13;421.47;;;379.00;;
9807;SDS011;4943;52.550;13.462;2023-07-20T07:17:42;439.00;;;396.10;;
9807;SDS011;4943;52.550;13.462;2023-07-20T07:20:11;446.23;;;402.77;;
9807;SDS011;4943;52.550;13.462;2023-07-20T07:22:49;438.37;;;395.33;;
9807;SDS011;4943;52.550;13.462;2023-07-20T07:25:19;419.40;;;376.83;;
9807;SDS011;4943;52.550;13.462;2023-07-20T07:27:49;429.67;;;386.93;;
9807;SDS011;4943;52.550;13.462;2023-07-20T07:30:19;438.13;;;394.90;;
9807;SDS011;4943;52.550;13.462;2023-07-20T07:32:47;443.77;;;400.33;;
9807;SDS011;4943;52.550;13.462;2023-07-20T07:35:15;455.93;;;412.20;;
9807;SDS011;4943;52.550;13.462;2023-07-20T07:37:44;467.43;;;423.30;;
9807;SDS011;4943;52.550;13.462;2023-07-20T07:40:34;485.23;;;440.63;;
9807;SDS011;4943;52.550;13.462;2023-07-20T07:43:02;493.43;;;448.63;;
9807;SDS011;4943;52.550;13.462;2023-07-20T07:45:30;507.90;;;462.17;;
9807;SDS011;4943;52.550;13.462;2023-07-20T07:48:01;514.47;;;468.97;;
9807;SDS011;4943;52.550;13.462;2023-07-20T07:50:30;518.43;;;472.80;;
9807;SDS011;4943;52.550;13.462;2023-07-20T07:52:58;536.07;;;489.80;;
9807;SDS011;4943;52.550;13.462;2023-07-20T07:55:27;551.27;;;504.53;;
9807;SDS011;4943;52.550;13.462;2023-07-20T07:57:56;547.83;;;501.13;;
9807;SDS011;4943;52.550;13.462;2023-07-20T08:00:25;553.70;;;507.10;;
9807;SDS011;4943;52.550;13.462;2023-07-20T08:02:54;533.33;;;487.40;;
9807;SDS011;4943;52.550;13.462;2023-07-20T08:05:22;559.63;;;513.07;;
9807;SDS011;4943;52.550;13.462;2023-07-20T08:07:50;575.13;;;527.97;;
9807;SDS011;4943;52.550;13.462;2023-07-20T08:10:18;584.40;;;536.90;;
9807;SDS011;4943;52.550;13.462;2023-07-20T08:12:46;593.83;;;546.03;;
9807;SDS011;4943;52.550;13.462;2023-07-20T08:15:16;576.50;;;529.43;;
9807;SDS011;4943;52.550;13.462;2023-07-20T08:17:46;568.83;;;521.93;;
9807;SDS011;4943;52.550;13.462;2023-07-20T08:20:15;574.23;;;527.10;;
9807;SDS011;4943;52.550;13.462;2023-07-20T08:22:43;597.27;;;549.50;;
9807;SDS011;4943;52.550;13.462;2023-07-20T08:25:14;591.20;;;543.57;;
9807;SDS011;4943;52.550;13.462;2023-07-20T08:27:42;577.07;;;529.83;;
9807;SDS011;4943;52.550;13.462;2023-07-20T08:30:12;569.67;;;523.00;;
9807;SDS011;4943;52.550;13.462;2023-07-20T08:32:42;579.23;;;532.10;;
9807;SDS011;4943;52.550;13.462;2023-07-20T08:35:10;592.67;;;545.53;;
9807;SDS011;4943;52.550;13.462;2023-07-20T08:37:41;590.17;;;542.60;;
9807;SDS011;4943;52.550;13.462;2023-07-20T08:40:10;593.63;;;546.07;;
9807;SDS011;4943;52.550;13.462;2023-07-20T08:42:39;603.13;;;555.30;;
9807;SDS011;4943;52.550;13.462;2023-07-20T08:45:08;587.83;;;540.67;;
9807;SDS011;4943;52.550;13.462;2023-07-20T08:47:38;576.57;;;529.67;;
9807;SDS011;4943;52.550;13.462;2023-07-20T08:50:10;592.83;;;545.53;;
9807;SDS011;4943;52.550;13.462;2023-07-20T08:52:40;579.30;;;532.43;;
9807;SDS011;4943;52.550;13.462;2023-07-20T08:55:08;583.10;;;536.00;;
9807;SDS011;4943;52.550;13.462;2023-07-20T08:57:37;572.20;;;525.50;;
9807;SDS011;4943;52.550;13.462;2023-07-20T09:00:07;575.37;;;528.67;;
9807;SDS011;4943;52.550;13.462;2023-07-20T09:02:39;587.73;;;540.63;;
9807;SDS011;4943;52.550;13.462;2023-07-20T09:05:11;583.40;;;536.50;;
9807;SDS011;4943;52.550;13.462;2023-07-20T09:07:40;596.33;;;549.07;;
9807;SDS011;4943;52.550;13.462;2023-07-20T09:10:09;599.93;;;552.57;;
9807;SDS011;4943;52.550;13.462;2023-07-20T09:12:38;593.37;;;546.33;;
9807;SDS011;4943;52.550;13.462;2023-07-20T09:15:08;597.87;;;550.50;;
9807;SDS011;4943;52.550;13.462;2023-07-20T09:17:37;644.80;;;595.00;;
9807;SDS011;4943;52.550;13.462;2023-07-20T09:20:06;621.13;;;573.10;;
9807;SDS011;4943;52.550;13.462;2023-07-20T09:22:38;627.63;;;579.37;;
9807;SDS011;4943;52.550;13.462;2023-07-20T09:25:07;639.00;;;590.50;;
9807;SDS011;4943;52.550;13.462;2023-07-20T09:27:38;628.93;;;580.73;;
9807;SDS011;4943;52.550;13.462;2023-07-20T09:30:09;619.83;;;571.83;;
9807;SDS011;4943;52.550;13.462;2023-07-20T09:32:44;621.57;;;573.70;;
9807;SDS011;4943;52.550;13.462;2023-07-20T09:35:16;648.37;;;599.83;;
9807;SDS011;4943;52.550;13.462;2023-07-20T09:37:53;636.70;;;588.30;;
9807;SDS011;4943;52.550;13.462;2023-07-20T09:40:26;640.50;;;591.83;;
9807;SDS011;4943;52.550;13.462;2023-07-20T09:42:58;620.73;;;572.83;;
9807;SDS011;4943;52.550;13.462;2023-07-20T09:45:33;629.00;;;580.77;;
9807;SDS011;4943;52.550;13.462;2023-07-20T09:48:06;607.13;;;559.67;;
9807;SDS011;4943;52.550;13.462;2023-07-20T09:50:41;592.80;;;545.53;;
9807;SDS011;4943;52.550;13.462;2023-07-20T09:53:12;588.23;;;541.07;;
9807;SDS011;4943;52.550;13.462;2023-07-20T09:55:41;586.47;;;539.37;;
9807;SDS011;4943;52.550;13.462;2023-07-20T09:58:11;584.07;;;536.97;;
9807;SDS011;4943;52.550;13.462;2023-07-20T10:00:40;588.17;;;540.57;;
9807;SDS011;4943;52.550;13.462;2023-07-20T10:03:16;589.10;;;541.53;;
9807;SDS011;4943;52.550;13.462;2023-07-20T10:05:48;571.07;;;523.93;;
9807;SDS011;4943;52.550;13.462;2023-07-20T10:08:23;569.53;;;522.60;;
9807;SDS011;4943;52.550;13.462;2023-07-20T10:10:55;559.80;;;512.97;;
9807;SDS011;4943;52.550;13.462;2023-07-20T10:13:27;585.50;;;538.03;;
9807;SDS011;4943;52.550;13.462;2023-07-20T10:15:58;570.47;;;523.60;;
9807;SDS011;4943;52.550;13.462;2023-07-20T10:18:31;577.97;;;530.97;;
9807;SDS011;4943;52.550;13.462;2023-07-20T10:21:04;567.30;;;520.73;;
9807;SDS011;4943;52.550;13.462;2023-07-20T10:23:38;573.93;;;527.13;;
9807;SDS011;4943;52.550;13.462;2023-07-20T10:26:06;594.63;;;546.97;;
9807;SDS011;4943;52.550;13.462;2023-07-20T10:28:36;592.57;;;545.17;;
9807;SDS011;4943;52.550;13.462;2023-07-20T10:31:06;609.50;;;561.70;;
9807;SDS011;4943;52.550;13.462;2023-07-20T10:33:35;614.47;;;566.63;;
9807;SDS011;4943;52.550;13.462;2023-07-20T10:36:05;616.87;;;568.83;;
9807;SDS011;4943;52.550;13.462;2023-07-20T10:38:42;618.63;;;570.73;;
9807;SDS011;4943;52.550;13.462;2023-07-20T10:41:20;614.83;;;567.00;;
9807;SDS011;4943;52.550;13.462;2023-07-20T10:43:51;607.93;;;560.53;;
9807;SDS011;4943;52.550;13.462;2023-07-20T10:49:12;615.50;;;567.50;;
9807;SDS011;4943;52.550;13.462;2023-07-20T10:51:41;635.10;;;586.53;;
9807;SDS011;4943;52.550;13.462;2023-07-20T10:57:21;617.53;;;569.77;;
9807;SDS011;4943;52.550;13.462;2023-07-20T10:59:51;628.87;;;580.60;;
9807;SDS011;4943;52.550;13.462;2023-07-20T11:02:19;654.20;;;605.20;;
9807;SDS011;4943;52.550;13.462;2023-07-20T11:04:48;631.70;;;583.63;;
9807;SDS011;4943;52.550;13.462;2023-07-20T11:07:16;631.80;;;583.77;;
9807;SDS011;4943;52.550;13.462;2023-07-20T11:09:49;667.83;;;618.37;;
9807;SDS011;4943;52.550;13.462;2023-07-20T11:12:21;621.50;;;573.70;;
9807;SDS011;4943;52.550;13.462;2023-07-20T11:14:52;629.80;;;581.80;;
9807;SDS011;4943;52.550;13.462;2023-07-20T11:17:28;635.83;;;587.53;;
9807;SDS011;4943;52.550;13.462;2023-07-20T11:19:58;642.03;;;593.57;;
9807;SDS011;4943;52.550;13.462;2023-07-20T11:22:30;642.93;;;594.57;;
9807;SDS011;4943;52.550;13.462;2023-07-20T11:25:00;657.87;;;609.03;;
9807;SDS011;4943;52.550;13.462;2023-07-20T11:27:29;655.63;;;606.67;;
9807;SDS011;4943;52.550;13.462;2023-07-20T11:29:57;670.47;;;621.33;;
9807;SDS011;4943;52.550;13.462;2023-07-20T11:32:25;677.10;;;627.70;;
9807;SDS011;4943;52.550;13.462;2023-07-20T11:34:54;673.63;;;624.40;;
9807;SDS011;4943;52.550;13.462;2023-07-20T11:37:22;697.10;;;647.20;;
9807;SDS011;4943;52.550;13.462;2023-07-20T11:39:54;694.50;;;644.57;;
9807;SDS011;4943;52.550;13.462;2023-07-20T11:42:24;695.77;;;645.83;;
9807;SDS011;4943;52.550;13.462;2023-07-20T11:44:56;675.00;;;625.70;;
9807;SDS011;4943;52.550;13.462;2023-07-20T11:47:28;664.93;;;616.07;;
9807;SDS011;4943;52.550;13.462;2023-07-20T11:49:58;681.63;;;632.43;;
9807;SDS011;4943;52.550;13.462;2023-07-20T11:52:31;706.13;;;655.93;;
9807;SDS011;4943;52.550;13.462;2023-07-20T11:54:59;690.40;;;640.80;;
9807;SDS011;4943;52.550;13.462;2023-07-20T11:57:29;706.77;;;656.63;;
9807;SDS011;4943;52.550;13.462;2023-07-20T12:00:00;674.07;;;625.10;;
9807;SDS011;4943;52.550;13.462;2023-07-20T12:02:32;684.30;;;634.80;;
9807;SDS011;4943;52.550;13.462;2023-07-20T12:05:01;675.90;;;626.63;;
9807;SDS011;4943;52.550;13.462;2023-07-20T12:07:35;682.27;;;632.73;;
9807;SDS011;4943;52.550;13.462;2023-07-20T12:10:07;674.67;;;625.37;;
9807;SDS011;4943;52.550;13.462;2023-07-20T12:12:38;665.03;;;615.93;;
9807;SDS011;4943;52.550;13.462;2023-07-20T12:15:14;657.23;;;608.17;;
9807;SDS011;4943;52.550;13.462;2023-07-20T12:17:43;658.60;;;609.57;;
9807;SDS011;4943;52.550;13.462;2023-07-20T12:20:12;610.27;;;562.67;;
9807;SDS011;4943;52.550;13.462;2023-07-20T12:22:41;619.17;;;571.37;;
9807;SDS011;4943;52.550;13.462;2023-07-20T12:25:11;629.53;;;578.80;;
9807;SDS011;4943;52.550;13.462;2023-07-20T12:27:40;594.60;;;547.33;;
9807;SDS011;4943;52.550;13.462;2023-07-20T12:30:11;586.57;;;539.73;;
9807;SDS011;4943;52.550;13.462;2023-07-20T12:32:40;606.40;;;559.17;;
9807;SDS011;4943;52.550;13.462;2023-07-20T12:35:08;594.87;;;547.87;;
9807;SDS011;4943;52.550;13.462;2023-07-20T12:37:38;606.07;;;558.80;;
9807;SDS011;4943;52.550;13.462;2023-07-20T12:40:06;598.10;;;551.23;;
9807;SDS011;4943;52.550;13.462;2023-07-20T12:42:37;623.87;;;576.00;;
9807;SDS011;4943;52.550;13.462;2023-07-20T12:45:07;615.30;;;567.87;;
9807;SDS011;4943;52.550;13.462;2023-07-20T12:47:37;588.80;;;542.00;;
9807;SDS011;4943;52.550;13.462;2023-07-20T12:50:06;601.63;;;554.47;;
9807;SDS011;4943;52.550;13.462;2023-07-20T12:52:35;580.60;;;534.03;;
9807;SDS011;4943;52.550;13.462;2023-07-20T12:55:05;579.77;;;533.10;;
9807;SDS011;4943;52.550;13.462;2023-07-20T12:57:34;598.40;;;551.07;;
9807;SDS011;4943;52.550;13.462;2023-07-20T13:00:03;602.07;;;554.50;;
9807;SDS011;4943;52.550;13.462;2023-07-20T13:02:35;589.13;;;541.83;;
9807;SDS011;4943;52.550;13.462;2023-07-20T13:05:04;594.80;;;547.27;;
9807;SDS011;4943;52.550;13.462;2023-07-20T13:07:33;570.27;;;523.80;;
9807;SDS011;4943;52.550;13.462;2023-07-20T13:10:05;563.70;;;517.30;;
9807;SDS011;4943;52.550;13.462;2023-07-20T13:12:35;593.47;;;546.13;;
9807;SDS011;4943;52.550;13.462;2023-07-20T13:15:05;569.43;;;523.03;;
9807;SDS011;4943;52.550;13.462;2023-07-20T13:17:36;559.87;;;513.60;;
9807;SDS011;4943;52.550;13.462;2023-07-20T13:20:06;570.17;;;523.77;;
9807;SDS011;4943;52.550;13.462;2023-07-20T13:22:37;572.17;;;525.47;;
9807;SDS011;4943;52.550;13.462;2023-07-20T13:25:06;552.23;;;506.23;;
9807;SDS011;4943;52.550;13.462;2023-07-20T13:27:35;575.60;;;528.70;;
9807;SDS011;4943;52.550;13.462;2023-07-20T13:30:05;556.93;;;510.77;;
9807;SDS011;4943;52.550;13.462;2023-07-20T13:32:37;578.53;;;531.57;;
9807;SDS011;4943;52.550;13.462;2023-07-20T13:35:09;585.93;;;538.93;;
9807;SDS011;4943;52.550;13.462;2023-07-20T13:37:38;575.87;;;529.17;;
9807;SDS011;4943;52.550;13.462;2023-07-20T13:40:06;570.33;;;523.83;;
9807;SDS011;4943;52.550;13.462;2023-07-20T13:42:38;577.40;;;530.77;;
9807;SDS011;4943;52.550;13.462;2023-07-20T13:45:07;582.20;;;535.47;;
9807;SDS011;4943;52.550;13.462;2023-07-20T13:47:35;586.30;;;539.50;;
9807;SDS011;4943;52.550;13.462;2023-07-20T13:50:05;575.80;;;529.43;;
9807;SDS011;4943;52.550;13.462;2023-07-20T13:52:50;604.17;;;556.97;;
9807;SDS011;4943;52.550;13.462;2023-07-20T13:55:38;597.70;;;550.60;;
9807;SDS011;4943;52.550;13.462;2023-07-20T13:58:10;590.23;;;543.53;;
9807;SDS011;4943;52.550;13.462;2023-07-20T14:00:39;611.17;;;563.70;;
9807;SDS011;4943;52.550;13.462;2023-07-20T14:03:09;605.03;;;558.07;;
9807;SDS011;4943;52.550;13.462;2023-07-20T14:05:40;616.67;;;569.30;;
9807;SDS011;4943;52.550;13.462;2023-07-20T14:08:12;625.83;;;578.07;;
9807;SDS011;4943;52.550;13.462;2023-07-20T14:10:41;650.90;;;602.43;;
9807;SDS011;4943;52.550;13.462;2023-07-20T14:13:11;641.97;;;593.80;;
9807;SDS011;4943;52.550;13.462;2023-07-20T14:15:40;649.77;;;601.37;;
9807;SDS011;4943;52.550;13.462;2023-07-20T14:18:10;642.03;;;593.53;;
9807;SDS011;4943;52.550;13.462;2023-07-20T14:20:38;644.33;;;595.97;;
9807;SDS011;4943;52.550;13.462;2023-07-20T14:23:06;646.47;;;598.37;;
9807;SDS011;4943;52.550;13.462;2023-07-20T14:25:34;668.07;;;619.17;;
9807;SDS011;4943;52.550;13.462;2023-07-20T14:28:03;675.83;;;626.83;;
9807;SDS011;4943;52.550;13.462;2023-07-20T14:30:32;670.17;;;621.47;;